Latest Weather Observations for Coondewanna

IDW60801

Issued at 10:35 am WST Wednesday 3 September 2014 (issued every 30 minutes, with the page automatically refreshed every 10 minutes)

About weather observations | Map of weather stations | Latest weather observations for WA | Other Formats
Station Details ID: 505051 Name: COONDEWANNA Lat: -22.96 Lon: 118.81 Height: 697.63 m
Data from the previous 72 hours. | See also: Recent months for locations in Western Australia
Date/Time
WST
Temp
°C
App
Temp
°C
Dew
Point
Rel
Hum
%
Delta-T
°C
Wind Press
QNH
hPa
Press
MSL
hPa
Rain
since 9 am
mm
Dir
 
Spd
km/h
Gust
km/h
Spd
kts
Gust
kts
03/10:30am 28.6 24.8 -6.0 10 15.2 ESE 6 11 3 6 1020.3 1017.0 0.0
03/10:00am 27.2 23.2 -5.8 11 14.4 SE 7 11 4 6 1020.7 1017.4 0.0
03/09:30am 26.0 22.2 -5.6 12 13.7 SW 6 11 3 6 1020.9 1017.7 0.0
03/09:00am 23.0 19.5 -5.9 14 12.1 SE 4 7 2 4 1021.0 1017.8 0.0
03/08:30am 21.0 17.6 -5.7 16 11.0 E 4 7 2 4 1020.9 1017.7 0.0
03/08:00am 16.5 13.9 -5.3 22 8.7 CALM 0 0 0 0 1020.9 1017.7 0.0
03/07:30am 13.4 10.7 -5.7 26 7.3 CALM 0 0 0 0 1020.8 1017.6 0.0
03/07:00am 11.1 8.4 -5.8 30 6.3 CALM 0 0 0 0 1020.5 1017.2 0.0
03/06:30am 7.7 5.0 -6.4 36 5.0 CALM 0 0 0 0 1020.3 1017.0 0.0
03/06:00am 7.9 5.1 -6.6 35 5.1 E 0 0 0 0 1020.3 1017.0 0.0
03/05:30am 8.8 6.0 -6.6 33 5.5 CALM 0 0 0 0 1020.1 1016.8 0.0
03/05:00am 8.6 5.4 -6.7 33 5.4 E 2 6 1 3 1019.9 1016.6 0.0
03/04:30am 10.0 6.5 -6.8 30 6.0 E 4 6 2 3 1019.9 1016.6 0.0
03/04:00am 10.8 6.7 -7.0 28 6.4 E 7 9 4 5 1019.6 1016.4 0.0
03/03:30am 11.6 7.2 -6.3 28 6.6 E 9 11 5 6 1019.8 1016.5 0.0
03/03:00am 10.5 7.7 -6.8 29 6.2 CALM 0 0 0 0 1019.9 1016.6 0.0
03/02:30am 11.0 7.1 -6.8 28 6.5 E 6 9 3 5 1019.8 1016.5 0.0
03/02:00am 13.4 8.9 -6.7 24 7.5 E 9 13 5 7 1019.9 1016.6 0.0
03/01:30am 13.5 9.4 -6.6 24 7.5 S 7 9 4 5 1020.0 1016.7 0.0
03/01:00am 13.3 9.2 -6.8 24 7.5 S 7 9 4 5 1020.3 1017.0 0.0
03/12:30am 14.1 10.2 -6.7 23 7.8 S 6 7 3 4 1020.5 1017.2 0.0
03/12:00am 14.4 10.5 -7.0 22 8.0 S 6 9 3 5 1020.7 1017.4 0.0
 
Date/Time
WST
Temp
°C
App
Temp
°C
Dew
Point
Rel
Hum
%
Delta-T
°C
Wind Press
QNH
hPa
Press
MSL
hPa
Rain
since 9 am
mm
Dir
 
Spd
km/h
Gust
km/h
Spd
kts
Gust
kts
02/11:30pm 15.8 11.0 -6.5 21 8.6 E 11 13 6 7 1020.7 1017.4 0.0
02/11:00pm 15.9 11.8 -7.0 20 8.7 NNW 7 11 4 6 1020.8 1017.6 0.0
02/10:30pm 15.6 11.4 -7.2 20 8.6 NNW 7 11 4 6 1021.0 1017.8 0.0
02/10:00pm 17.7 14.1 -6.9 18 9.6 SSE 4 7 2 4 1020.9 1017.7 0.0
02/09:30pm 17.5 13.4 -7.0 18 9.5 N 7 15 4 8 1020.7 1017.4 0.0
02/09:00pm 18.6 15.0 -6.9 17 10.0 N 4 6 2 3 1020.6 1017.3 0.0
02/08:30pm 20.1 15.6 -7.3 15 10.9 N 9 11 5 6 1020.3 1017.0 0.0
02/08:00pm 20.0 15.8 -8.3 14 11.0 N 7 9 4 5 1020.1 1016.8 0.0
02/07:30pm 22.3 18.1 -7.4 13 12.0 N 7 9 4 5 1019.8 1016.5 0.0
02/07:00pm 23.0 19.0 -7.9 12 12.5 N 6 7 3 4 1019.3 1016.0 0.0
02/06:30pm 25.3 21.0 -8.5 10 13.8 N 7 9 4 5 1018.9 1015.6 0.0
02/06:00pm 27.6 23.0 -8.1 9 15.0 N 9 17 5 9 1018.5 1015.2 0.0
02/05:30pm 29.5 23.7 -8.2 8 16.1 N 15 24 8 13 1018.1 1014.8 0.0
02/05:00pm 30.6 24.4 -9.1 7 16.8 NNW 17 24 9 13 1017.9 1014.6 0.0
02/04:30pm 31.3 25.5 -8.6 7 17.2 N 15 28 8 15 1017.7 1014.4 0.0
02/04:00pm 31.6 26.2 -8.4 7 17.3 NNW 13 22 7 12 1017.6 1014.3 0.0
02/03:30pm 30.9 26.0 -7.1 8 16.7 N 11 24 6 13 1017.8 1014.5 0.0
02/03:00pm 31.8 26.0 -8.2 7 17.4 NNE 15 22 8 12 1017.9 1014.6 0.0
02/02:30pm 30.7 23.9 -9.0 7 16.9 N 20 30 11 16 1018.0 1014.7 0.0
02/02:00pm 30.9 24.5 -7.1 8 16.7 N 19 30 10 16 1018.4 1015.1 0.0
02/01:30pm 30.6 23.2 -7.4 8 16.6 N 24 33 13 18 1018.6 1015.3 0.0
02/01:00pm 30.1 24.1 -6.2 9 16.1 NNE 17 24 9 13 1019.0 1015.7 0.0
02/12:30pm 30.2 24.6 -6.1 9 16.2 N 15 33 8 18 1019.3 1016.0 0.0
02/12:00pm 29.3 23.3 -6.8 9 15.7 N 17 26 9 14 1019.6 1016.4 0.0
02/11:30am 29.4 22.4 -6.7 9 15.8 N 22 33 12 18 1020.0 1016.7 0.0
02/11:00am 29.0 23.0 -7.0 9 15.6 NNE 17 28 9 15 1020.5 1017.2 0.0
02/10:30am 27.3 23.2 -6.9 10 14.7 N 7 15 4 8 1021.1 1017.9 0.0
02/10:00am 26.7 22.1 -7.4 10 14.4 NE 9 15 5 8 1021.7 1018.4 0.0
02/09:30am 25.1 21.4 -8.6 10 13.7 E 4 9 2 5 1021.8 1018.5 0.0
02/09:00am 22.2 19.3 -7.5 13 12.0 CALM 0 6 0 3 1021.8 1018.5 0.0
02/08:30am 19.6 15.6 -7.7 15 10.7 E 6 7 3 4 1021.5 1018.2 0.0
02/08:00am 15.8 12.7 -6.5 21 8.6 E 2 6 1 3 1021.3 1018.0 0.0
02/07:30am 12.2 8.7 -6.7 26 7.0 E 4 9 2 5 1020.9 1017.7 0.0
02/07:00am 9.1 5.0 -7.1 31 5.7 E 7 9 4 5 1020.6 1017.3 0.0
02/06:30am 8.1 5.3 -7.2 33 5.3 CALM 0 6 0 3 1019.9 1016.6 0.0
02/06:00am 8.8 4.9 -7.0 32 5.5 E 6 9 3 5 1019.6 1016.4 0.0
02/05:30am 8.5 5.6 -7.6 31 5.5 CALM 0 0 0 0 1019.5 1016.3 0.0
02/05:00am 9.2 6.3 -7.9 29 5.9 CALM 0 4 0 2 1019.1 1015.8 0.0
02/04:30am 9.9 5.3 -7.7 28 6.2 E 9 11 5 6 1019.0 1015.7 0.0
02/04:00am 9.8 5.7 -8.3 27 6.2 E 6 7 3 4 1019.0 1015.7 0.0
02/03:30am 12.3 7.7 -7.7 24 7.2 E 9 11 5 6 1019.1 1015.8 0.0
02/03:00am 12.0 7.0 -7.9 24 7.1 E 11 15 6 8 1019.2 1015.9 0.0
02/02:30am 11.6 7.4 -7.7 25 6.9 WNW 7 9 4 5 1019.3 1016.0 0.0
02/02:00am 11.5 6.6 -7.3 26 6.8 WSW 11 15 6 8 1019.3 1016.0 0.0
02/01:30am 12.6 8.0 -7.4 24 7.3 E 9 9 5 5 1019.1 1015.8 0.0
02/01:00am 12.4 9.6 -7.0 25 7.1 CALM 0 0 0 0 1019.2 1015.9 0.0
02/12:30am 12.3 8.6 -8.2 23 7.3 E 4 7 2 4 1019.4 1016.1 0.0
02/12:00am 14.4 9.8 -7.6 21 8.1 E 9 13 5 7 1019.5 1016.3 0.0
 
Date/Time
WST
Temp
°C
App
Temp
°C
Dew
Point
Rel
Hum
%
Delta-T
°C
Wind Press
QNH
hPa
Press
MSL
hPa
Rain
since 9 am
mm
Dir
 
Spd
km/h
Gust
km/h
Spd
kts
Gust
kts
01/11:30pm 13.7 9.7 -7.6 22 7.8 E 6 7 3 4 1019.6 1016.4 0.0
01/11:00pm 16.1 11.9 -7.5 19 8.9 E 7 9 4 5 1019.9 1016.6 0.0
01/10:30pm 15.6 12.7 -7.9 19 8.8 CALM 0 0 0 0 1020.0 1016.7 0.0
01/10:00pm 16.8 12.2 -8.4 17 9.4 E 9 11 5 6 1020.1 1016.8 0.0
01/09:30pm 16.4 12.4 -7.9 18 9.2 E 6 7 3 4 1020.1 1016.8 0.0
01/09:00pm 18.0 13.8 -8.2 16 10.0 E 7 9 4 5 1019.9 1016.6 0.0
01/08:30pm 20.6 15.6 -8.7 13 11.4 E 11 13 6 7 1019.6 1016.4 0.0
01/08:00pm 20.4 15.7 -8.9 13 11.3 E 9 11 5 6 1019.3 1016.0 0.0
01/07:30pm 21.6 16.5 -9.0 12 11.9 E 11 13 6 7 1018.9 1015.6 0.0
01/07:00pm 22.8 18.0 -10.4 10 12.7 NNE 9 13 5 7 1018.5 1015.2 0.0
01/06:30pm 24.7 19.9 -10.3 9 13.8 NNE 9 9 5 5 1018.3 1015.0 0.0
01/06:00pm 26.9 22.1 -10.1 8 14.9 NNE 9 15 5 8 1017.8 1014.5 0.0
01/05:30pm 28.8 23.6 -10.4 7 16.0 NNE 11 15 6 8 1017.5 1014.2 0.0
01/05:00pm 29.7 23.8 -9.7 7 16.4 N 15 22 8 12 1017.4 1014.1 0.0
01/04:30pm 29.9 23.3 -9.6 7 16.5 NE 19 26 10 14 1017.1 1013.8 0.0
01/04:00pm 30.2 24.7 -9.4 7 16.6 N 13 24 7 13 1017.1 1013.8 0.0
01/03:30pm 31.1 26.1 -8.7 7 17.1 NNE 11 20 6 11 1017.1 1013.8 0.0
01/03:00pm 30.7 25.3 -9.0 7 16.9 N 13 24 7 13 1017.1 1013.8 0.0
01/02:30pm 29.9 23.4 -7.9 8 16.3 E 19 26 10 14 1017.1 1013.8 0.0
01/02:00pm 30.1 25.5 -7.7 8 16.3 N 9 13 5 7 1017.5 1014.2 0.0
01/01:30pm 30.2 25.2 -7.7 8 16.4 SE 11 26 6 14 1017.8 1014.5 0.0
01/01:00pm 29.9 24.5 -7.9 8 16.2 N 13 22 7 12 1018.4 1015.1 0.0
01/12:30pm 29.4 24.8 -8.2 8 16.0 NNE 9 19 5 10 1018.6 1015.3 0.0
01/12:00pm 28.1 23.1 -7.7 9 15.2 ENE 11 20 6 11 1019.1 1015.8 0.0
01/11:30am 27.6 22.7 -6.7 10 14.8 NE 11 19 6 10 1019.5 1016.3 0.0
01/11:00am 28.2 23.0 -6.3 10 15.0 E 13 22 7 12 1019.9 1016.6 0.0
01/10:30am 26.5 21.6 -3.1 14 13.5 E 13 22 7 12 1020.2 1016.9 0.0
01/10:00am 25.2 20.0 -2.4 16 12.6 ESE 15 20 8 11 1020.5 1017.2 0.0
01/09:30am 24.6 19.6 -1.3 18 12.0 ESE 15 20 8 11 1020.6 1017.3 0.0
01/09:00am 23.1 17.7 -1.1 20 11.1 ESE 17 22 9 12 1020.5 1017.2 0.0
01/08:30am 21.7 16.4 -0.9 22 10.3 ESE 17 20 9 11 1020.4 1017.1 0.0
01/08:00am 20.2 16.3 -1.6 23 9.7 ESE 9 15 5 8 1020.0 1016.7 0.0
01/07:30am 15.5 12.7 -2.9 28 7.6 WNW 2 6 1 3 1019.6 1017.5 0.0
01/07:00am 12.7 9.5 -3.5 32 6.4 WNW 4 7 2 4 1019.4 1017.3 0.0
01/06:30am 9.8 5.0 -5.7 33 5.7 WSW 11 11 6 6 1019.0 1016.9 0.0
01/06:00am 12.0 8.2 -3.4 34 6.1 SSW 7 15 4 8 1018.6 1016.5 0.0
01/05:30am 8.9 4.9 -7.3 31 5.7 SW 6 7 3 4 1018.1 1016.0 0.0
01/05:00am 9.5 5.3 -7.6 29 6.0 W 7 9 4 5 1018.1 1016.0 0.0
01/04:30am 9.2 5.2 -7.9 29 5.9 SW 6 7 3 4 1017.9 1015.8 0.0
01/04:00am 9.7 4.7 -7.9 28 6.1 N 11 13 6 7 1017.9 1015.8 0.0
01/03:30am 9.5 6.2 -8.1 28 6.1 SW 2 7 1 4 1018.0 1015.9 0.0
01/03:00am 10.3 7.0 -7.9 27 6.4 ENE 2 15 1 8 1018.1 1016.0 0.0
01/02:30am 8.5 4.5 -7.6 31 5.5 WSW 6 6 3 3 1018.3 1016.1 0.0
01/02:00am 9.1 6.2 -8.4 28 6.0 CALM 0 0 0 0 1017.9 1015.8 0.0
01/01:30am 10.0 7.1 -7.6 28 6.2 CALM 0 6 0 3 1017.9 1015.8 0.0
01/01:00am 10.4 7.5 -8.2 26 6.5 CALM 0 0 0 0 1017.9 1015.8 0.0
01/12:30am 10.7 7.0 -8.5 25 6.7 WSW 4 7 2 4 1018.1 1016.0 0.0
01/12:00am 11.7 7.6 -8.7 23 7.1 WSW 6 7 3 4 1018.1 1016.0 0.0
 
Date/Time
WST
Temp
°C
App
Temp
°C
Dew
Point
Rel
Hum
%
Delta-T
°C
Wind Press
QNH
hPa
Press
MSL
hPa
Rain
since 9 am
mm
Dir
 
Spd
km/h
Gust
km/h
Spd
kts
Gust
kts
31/11:30pm 13.0 9.7 -8.8 21 7.7 S 2 9 1 5 1018.5 1016.4 0.0
31/11:00pm 14.6 9.2 -8.7 19 8.4 E 13 15 7 8 1018.5 1016.4 0.0
31/10:30pm 14.2 9.9 -9.1 19 8.3 W 7 9 4 5 1018.7 1016.6 0.0
31/10:00pm 15.8 12.1 -8.4 18 8.9 SW 4 9 2 5 1018.8 1016.7 0.0
31/09:30pm 16.6 11.9 -9.3 16 9.5 E 9 13 5 7 1018.8 1016.7 0.0
31/09:00pm 18.3 13.6 -8.7 15 10.2 E 9 11 5 6 1018.4 1016.2 0.0
31/08:30pm 18.4 14.1 -9.5 14 10.4 ENE 7 9 4 5 1018.1 1016.0 0.0
31/08:00pm 20.4 15.6 -9.9 12 11.4 ENE 9 11 5 6 1017.9 1015.8 0.0
31/07:30pm 21.1 16.3 -10.5 11 11.9 ENE 9 11 5 6 1017.6 1015.5 0.0
31/07:00pm 22.0 17.2 -11.0 10 12.4 NE 9 9 5 5 1017.1 1014.9 0.0
31/06:30pm 23.8 19.0 -10.9 9 13.4 N 9 9 5 5 1016.9 1014.7 0.0
31/06:00pm 26.0 21.2 -10.8 8 14.5 N 9 13 5 7 1016.7 1014.5 0.0
31/05:30pm 28.4 22.8 -10.7 7 15.8 N 13 20 7 11 1016.4 1014.3 0.0
31/05:00pm 29.2 23.7 -10.1 7 16.2 NNW 13 17 7 9 1016.4 1014.3 0.0
31/04:30pm 29.5 24.7 -9.9 7 16.3 NNW 9 22 5 12 1016.3 1014.2 0.0
31/04:00pm 29.7 23.4 -9.7 7 16.4 N 17 26 9 14 1016.1 1014.0 0.0
31/03:30pm 29.6 23.3 -9.8 7 16.4 N 17 24 9 13 1016.1 1014.0 0.0
31/03:00pm 29.1 24.3 -10.2 7 16.1 NNW 9 22 5 12 1016.2 1014.1 0.0
31/02:30pm 30.0 23.4 -9.5 7 16.6 N 19 30 10 16 1016.4 1014.3 0.0
31/02:00pm 28.8 22.6 -8.7 8 15.8 NNE 17 26 9 14 1016.9 1014.7 0.0
31/01:30pm 28.9 24.2 -8.6 8 15.8 NNW 9 19 5 10 1017.2 1015.0 0.0
31/01:00pm 28.0 22.1 -9.3 8 15.4 ESE 15 20 8 11 1017.7 1015.6 0.0
31/12:30pm 28.5 23.2 -7.4 9 15.4 NE 13 22 7 12 1018.3 1016.1 0.0
31/12:00pm 27.7 22.7 -8.0 9 15.0 NNW 11 20 6 11 1018.7 1016.6 0.0
31/11:30am 27.2 23.1 -7.0 10 14.6 ENE 7 13 4 7 1019.2 1017.1 0.0
31/11:00am 26.5 21.8 -5.2 12 13.9 ENE 11 19 6 10 1019.5 1017.4 0.0

Other Formats:

Comma delimited format used in spreadsheet applications
http://www.bom.gov.au/fwo/IDW60801/IDW60801.99312.axf

JavaScript Object Notation format (JSON) in row-major order
http://www.bom.gov.au/fwo/IDW60801/IDW60801.99312.json